Time;durP1;ratioP1;P1;durP2;ratioP2;P2;SDS_P1;SDS_P2;PMS_P1;PMS_P2;Temp;Humidity;BMP_temperature;BMP_pressure;BME280_temperature;BME280_humidity;BME280_pressure;Samples;Min_cycle;Max_cycle;Signal;HPM_P1;HPM_P2
2022/04/23 00:00:53;;;;;;;6.33;3.03;;;;;;;21.92;29.39;94083.53;5030415;28;20493;-63
2022/04/23 00:03:20;;;;;;;7.27;2.70;;;;;;;21.64;29.73;94085.50;5030771;28;20454;-58
2022/04/23 00:05:46;;;;;;;9.37;2.90;;;;;;;21.56;29.28;94094.44;5030544;28;20432;-59
2022/04/23 00:08:14;;;;;;;6.13;2.37;;;;;;;22.03;28.44;94100.56;5030648;28;20535;-53
2022/04/23 00:10:41;;;;;;;9.63;2.20;;;;;;;22.22;28.51;94097.19;5029624;28;20454;-61
2022/04/23 00:13:09;;;;;;;8.83;2.57;;;;;;;21.79;28.46;94106.09;5029590;28;20444;-60
2022/04/23 00:15:39;;;;;;;9.30;3.23;;;;;;;22.44;27.85;94100.00;5030035;28;20436;-57
2022/04/23 00:18:08;;;;;;;7.70;2.87;;;;;;;22.23;28.22;94093.41;5030644;28;20530;-56
2022/04/23 00:20:37;;;;;;;6.37;2.30;;;;;;;22.61;27.90;94083.59;5029842;28;20480;-59
2022/04/23 00:23:05;;;;;;;7.07;2.43;;;;;;;22.93;26.82;94087.72;5030712;28;20424;-61
2022/04/23 00:25:35;;;;;;;6.87;2.47;;;;;;;22.51;27.20;94086.81;5030403;28;20446;-54
2022/04/23 00:28:03;;;;;;;7.50;2.47;;;;;;;22.65;27.79;94086.34;5030654;28;20436;-57
2022/04/23 00:30:30;;;;;;;6.03;2.43;;;;;;;22.46;27.96;94078.28;5030224;28;20439;-58
2022/04/23 00:33:01;;;;;;;5.90;2.23;;;;;;;21.90;28.58;94104.44;5030275;28;20519;-58
2022/04/23 00:35:29;;;;;;;4.27;2.33;;;;;;;20.61;30.30;94105.91;5030008;28;20450;-62
2022/04/23 00:37:56;;;;;;;8.97;3.00;;;;;;;21.93;28.73;94101.13;5030276;28;20465;-58
2022/04/23 00:40:24;;;;;;;7.50;2.80;;;;;;;22.03;28.43;94090.69;5029562;28;20495;-59
2022/04/23 00:42:57;;;;;;;6.23;2.50;;;;;;;22.27;28.31;94100.38;5030222;28;20439;-59
2022/04/23 00:45:28;;;;;;;8.37;2.60;;;;;;;22.62;28.15;94090.50;5029672;28;20507;-58
2022/04/23 00:47:55;;;;;;;6.70;2.33;;;;;;;22.37;28.19;94086.47;5030101;28;20912;-54
2022/04/23 00:50:22;;;;;;;7.67;3.03;;;;;;;22.52;27.81;94072.31;5029452;28;20891;-57
2022/04/23 00:52:58;;;;;;;7.53;2.20;;;;;;;22.16;28.31;94083.34;5029305;28;20513;-62
2022/04/23 00:55:25;;;;;;;6.17;2.90;;;;;;;22.09;28.28;94085.84;5029338;28;20451;-58
2022/04/23 00:57:52;;;;;;;9.87;2.67;;;;;;;22.08;28.19;94086.97;5029812;28;20443;-52
2022/04/23 01:00:21;;;;;;;13.70;3.07;;;;;;;21.30;28.97;94096.81;5028902;28;20482;-55
2022/04/23 01:02:48;;;;;;;14.37;2.87;;;;;;;22.32;27.87;94092.09;5029809;28;20448;-53
2022/04/23 01:05:15;;;;;;;10.57;2.87;;;;;;;22.08;28.06;94094.97;5029879;28;20542;-60
2022/04/23 01:07:44;;;;;;;7.83;2.60;;;;;;;22.26;27.87;94082.84;5029406;28;20458;-60
2022/04/23 01:10:11;;;;;;;8.07;2.40;;;;;;;22.36;27.72;94089.50;5029137;28;20435;-53
2022/04/23 01:12:38;;;;;;;6.97;2.50;;;;;;;22.06;27.76;94094.56;5029424;28;20435;-58
2022/04/23 01:15:08;;;;;;;9.20;2.43;;;;;;;22.54;27.59;94083.44;5029413;28;20456;-56
2022/04/23 01:17:36;;;;;;;7.00;2.47;;;;;;;22.05;27.87;94087.66;5029247;28;20531;-50
2022/04/23 01:20:09;;;;;;;7.07;2.20;;;;;;;22.29;27.77;94081.34;5029071;28;20490;-60
2022/04/23 01:22:37;;;;;;;8.70;2.27;;;;;;;21.93;28.22;94080.53;5029720;28;20495;-55
2022/04/23 01:25:06;;;;;;;9.27;3.20;;;;;;;22.12;28.10;94061.16;5029153;28;20450;-51
2022/04/23 01:27:34;;;;;;;14.37;3.10;;;;;;;22.72;27.57;94068.56;5029339;28;20531;-56
2022/04/23 01:30:01;;;;;;;5.87;2.40;;;;;;;22.34;27.72;94075.72;5028623;28;20448;-51
2022/04/23 01:32:28;;;;;;;9.43;2.67;;;;;;;22.71;27.39;94083.06;5029218;28;20476;-51
2022/04/23 01:34:55;;;;;;;10.10;2.77;;;;;;;23.05;27.21;94100.16;5028782;28;20450;-54
2022/04/23 01:37:22;;;;;;;15.77;2.90;;;;;;;23.42;26.69;94100.50;5029012;28;20467;-60
2022/04/23 01:39:49;;;;;;;5.30;2.60;;;;;;;22.96;27.89;94100.38;5028874;28;20433;-56
2022/04/23 01:42:18;;;;;;;9.00;3.13;;;;;;;22.34;28.80;94116.56;5029260;28;20890;-61
2022/04/23 01:44:50;;;;;;;4.53;2.33;;;;;;;22.19;28.68;94114.66;5028930;28;20458;-55
2022/04/23 01:47:18;;;;;;;7.27;2.77;;;;;;;22.09;29.02;94099.19;5029104;28;20514;-54
2022/04/23 01:49:45;;;;;;;4.90;2.50;;;;;;;21.91;29.80;94106.00;5028831;28;20801;-57
2022/04/23 01:52:13;;;;;;;6.43;2.90;;;;;;;21.49;30.11;94105.72;5029111;28;20468;-59
2022/04/23 01:54:40;;;;;;;9.30;2.70;;;;;;;21.33;30.34;94098.81;5028719;28;20812;-55
2022/04/23 01:57:07;;;;;;;4.70;2.67;;;;;;;21.32;30.60;94097.25;5029505;28;20883;-60
2022/04/23 01:59:35;;;;;;;4.27;2.70;;;;;;;21.35;30.69;94112.56;5028749;28;20443;-59
2022/04/23 02:02:02;;;;;;;6.00;2.73;;;;;;;21.29;30.54;94114.69;5029063;28;20491;-61
2022/04/23 02:04:29;;;;;;;5.83;2.83;;;;;;;20.83;31.66;94108.09;5030253;28;20527;-55
2022/04/23 02:06:56;;;;;;;10.27;3.07;;;;;;;21.28;31.01;94113.13;5033234;28;20458;-63
2022/04/23 02:09:23;;;;;;;7.90;3.07;;;;;;;20.69;31.74;94118.31;5032844;28;20447;-56
2022/04/23 02:11:50;;;;;;;6.20;3.00;;;;;;;21.05;31.68;94114.81;5032910;28;20466;-57
2022/04/23 02:14:17;;;;;;;7.70;2.90;;;;;;;21.03;31.85;94131.13;5032607;28;20424;-58
2022/04/23 02:16:44;;;;;;;4.80;3.00;;;;;;;21.05;31.58;94120.91;5032212;28;20456;-54
2022/04/23 02:19:11;;;;;;;6.27;3.23;;;;;;;21.25;31.61;94139.69;5032395;28;20450;-56
2022/04/23 02:21:38;;;;;;;9.07;3.50;;;;;;;21.20;31.56;94126.63;5031885;28;20483;-62
2022/04/23 02:24:06;;;;;;;10.83;4.53;;;;;;;21.36;31.34;94128.22;5032437;28;20463;-57
2022/04/23 02:26:33;;;;;;;8.83;3.93;;;;;;;20.94;32.17;94127.81;5032390;28;20494;-55
2022/04/23 02:29:00;;;;;;;8.10;4.00;;;;;;;20.92;31.94;94111.38;5032227;28;20443;-57
2022/04/23 02:31:27;;;;;;;6.90;3.90;;;;;;;21.14;31.75;94115.44;5032241;28;20428;-59
2022/04/23 02:33:54;;;;;;;8.70;4.03;;;;;;;21.02;32.03;94132.22;5032452;28;20553;-60
2022/04/23 02:36:21;;;;;;;8.90;4.17;;;;;;;21.12;31.78;94137.09;5031810;28;20459;-52
2022/04/23 02:38:51;;;;;;;7.10;4.50;;;;;;;21.08;31.67;94122.88;5032736;28;20452;-63
2022/04/23 02:41:18;;;;;;;9.20;4.27;;;;;;;21.05;32.21;94136.91;5031898;28;20487;-54
2022/04/23 02:43:45;;;;;;;10.53;4.17;;;;;;;20.80;32.24;94148.69;5032271;28;20435;-56
2022/04/23 02:46:14;;;;;;;8.30;3.97;;;;;;;19.14;34.75;94152.41;5031690;28;20448;-60
2022/04/23 02:48:42;;;;;;;8.07;4.50;;;;;;;20.24;33.47;94154.22;5031995;28;20425;-57
2022/04/23 02:51:15;;;;;;;10.30;4.07;;;;;;;20.22;33.36;94135.91;5031566;28;20830;-54
2022/04/23 02:53:43;;;;;;;8.30;3.40;;;;;;;20.44;32.94;94143.44;5032075;28;20501;-52
2022/04/23 02:56:16;;;;;;;5.73;3.30;;;;;;;20.47;32.93;94148.09;5031999;28;20428;-60
2022/04/23 02:58:44;;;;;;;10.73;3.40;;;;;;;20.55;32.47;94133.09;5032059;28;20475;-57
2022/04/23 03:01:11;;;;;;;8.63;3.53;;;;;;;20.66;32.87;94145.63;5031426;28;20479;-55
2022/04/23 03:03:40;;;;;;;10.50;3.97;;;;;;;20.60;33.23;94141.63;5032087;28;20444;-51
2022/04/23 03:06:07;;;;;;;9.80;3.73;;;;;;;20.55;33.20;94139.19;5031668;28;20451;-56
2022/04/23 03:08:38;;;;;;;8.60;3.60;;;;;;;20.46;33.28;94143.88;5032199;28;20451;-57
2022/04/23 03:11:06;;;;;;;7.10;3.30;;;;;;;20.05;33.64;94141.44;5031318;28;20441;-61
2022/04/23 03:13:36;;;;;;;8.07;5.30;;;;;;;20.07;33.55;94136.56;5031845;28;20438;-55
2022/04/23 03:16:04;;;;;;;8.50;4.73;;;;;;;19.92;33.98;94132.69;5030240;28;20450;-59
2022/04/23 03:18:31;;;;;;;8.77;4.33;;;;;;;19.86;33.91;94122.56;5031392;28;20513;-60
2022/04/23 03:20:58;;;;;;;9.97;3.90;;;;;;;19.93;33.93;94126.25;5030749;28;20480;-55
2022/04/23 03:23:25;;;;;;;11.50;4.50;;;;;;;20.27;33.52;94114.41;5031425;28;20436;-55
2022/04/23 03:25:53;;;;;;;9.80;4.10;;;;;;;20.51;33.14;94126.91;5031526;28;20444;-50
2022/04/23 03:28:23;;;;;;;7.83;3.20;;;;;;;19.98;33.96;94135.91;5031408;28;20440;-53
2022/04/23 03:30:50;;;;;;;9.30;3.50;;;;;;;20.13;33.63;94132.56;5030449;28;20440;-59
2022/04/23 03:33:17;;;;;;;7.20;3.13;;;;;;;20.43;33.03;94130.47;5031447;28;20539;-59
2022/04/23 03:35:44;;;;;;;9.57;3.50;;;;;;;20.34;33.33;94138.56;5030581;28;20447;-54
2022/04/23 03:38:11;;;;;;;9.60;3.60;;;;;;;20.30;33.63;94136.91;5031284;28;20439;-54
2022/04/23 03:40:39;;;;;;;10.27;4.13;;;;;;;19.36;35.20;94145.97;5030623;28;20499;-59
2022/04/23 03:43:06;;;;;;;12.10;4.00;;;;;;;19.88;34.26;94146.94;5031367;28;20428;-60
2022/04/23 03:45:36;;;;;;;9.23;3.70;;;;;;;20.20;34.05;94148.00;5031207;28;20452;-58
2022/04/23 03:48:04;;;;;;;10.33;4.03;;;;;;;20.12;33.88;94146.97;5029681;28;20456;-54
2022/04/23 03:50:32;;;;;;;12.00;3.90;;;;;;;19.45;35.31;94165.25;5030117;28;20455;-55
2022/04/23 03:52:59;;;;;;;11.07;4.00;;;;;;;20.15;33.85;94160.38;5030707;28;20978;-60
2022/04/23 03:55:26;;;;;;;12.63;3.70;;;;;;;20.09;34.07;94171.56;5030540;28;20447;-54
2022/04/23 03:57:54;;;;;;;13.17;4.60;;;;;;;20.20;33.64;94159.41;5031047;28;20447;-62
2022/04/23 04:00:22;;;;;;;10.27;4.23;;;;;;;20.39;33.85;94158.84;5030130;28;20546;-59
2022/04/23 04:02:54;;;;;;;8.73;4.20;;;;;;;20.31;34.31;94171.16;5030679;28;21021;-53
2022/04/23 04:05:23;;;;;;;11.43;4.27;;;;;;;20.47;34.07;94161.41;5030184;28;20447;-50
2022/04/23 04:07:50;;;;;;;15.93;4.27;;;;;;;20.36;33.51;94172.81;5031077;28;20487;-59
2022/04/23 04:10:19;;;;;;;12.97;4.13;;;;;;;20.36;33.69;94175.47;5029580;28;20490;-53
2022/04/23 04:12:47;;;;;;;12.73;4.50;;;;;;;20.40;33.52;94177.13;5031155;28;20428;-60
2022/04/23 04:15:15;;;;;;;12.87;4.83;;;;;;;20.06;34.52;94177.53;5029913;28;20470;-62
2022/04/23 04:17:47;;;;;;;14.23;4.77;;;;;;;20.35;33.72;94168.59;5030402;28;20478;-61
2022/04/23 04:20:15;;;;;;;16.00;4.73;;;;;;;20.06;34.01;94180.22;5029807;28;20447;-63
2022/04/23 04:22:44;;;;;;;17.73;4.50;;;;;;;20.27;34.18;94186.25;5030384;28;20531;-61
2022/04/23 04:25:13;;;;;;;13.97;4.60;;;;;;;19.57;35.12;94189.97;5030049;28;20448;-58
2022/04/23 04:27:41;;;;;;;10.67;4.40;;;;;;;19.74;35.39;94191.69;5030289;28;21012;-57
2022/04/23 04:30:09;;;;;;;16.77;4.10;;;;;;;20.25;34.19;94183.13;5029372;28;20888;-56
2022/04/23 04:32:38;;;;;;;15.50;4.60;;;;;;;20.57;33.72;94181.44;5030430;28;20440;-61
2022/04/23 04:35:05;;;;;;;13.57;4.23;;;;;;;20.33;33.98;94178.81;5029446;28;20452;-61
2022/04/23 04:37:33;;;;;;;11.60;4.73;;;;;;;20.51;33.62;94188.13;5030416;28;20806;-58
2022/04/23 04:40:00;;;;;;;12.23;4.80;;;;;;;20.37;33.83;94190.31;5029911;28;20514;-57
2022/04/23 04:42:27;;;;;;;9.93;4.40;;;;;;;19.52;34.86;94200.03;5030140;28;20480;-54
2022/04/23 04:44:59;;;;;;;18.63;4.80;;;;;;;19.62;34.91;94202.25;5029581;28;20494;-61
2022/04/23 04:47:26;;;;;;;15.33;5.20;;;;;;;20.26;34.00;94205.97;5029915;28;20506;-55
2022/04/23 04:49:54;;;;;;;12.43;5.57;;;;;;;20.50;34.82;94205.97;5029410;28;20443;-57
2022/04/23 04:52:20;;;;;;;9.47;4.90;;;;;;;20.55;35.00;94208.41;5030262;28;20455;-57
2022/04/23 04:54:55;;;;;;;13.57;5.10;;;;;;;20.43;34.72;94200.44;5029346;28;20942;-59
2022/04/23 04:57:22;;;;;;;16.73;5.20;;;;;;;20.66;34.42;94214.81;5029838;28;20424;-52
2022/04/23 04:59:49;;;;;;;14.37;5.27;;;;;;;20.83;33.90;94219.13;5028906;28;20494;-55
2022/04/23 05:02:16;;;;;;;15.30;5.93;;;;;;;20.87;34.49;94215.47;5030018;28;20471;-61
2022/04/23 05:04:43;;;;;;;18.33;6.73;;;;;;;20.78;34.13;94222.78;5029294;28;20839;-58
2022/04/23 05:07:10;;;;;;;14.73;6.83;;;;;;;20.85;34.18;94235.56;5030048;28;20826;-54
2022/04/23 05:09:37;;;;;;;19.57;6.73;;;;;;;21.03;34.14;94224.34;5028864;28;20627;-58
2022/04/23 05:12:04;;;;;;;15.70;6.33;;;;;;;20.87;33.90;94236.00;5029965;28;20879;-53
2022/04/23 05:14:31;;;;;;;19.03;8.10;;;;;;;20.63;34.35;94249.31;5029124;28;20530;-56
2022/04/23 05:16:57;;;;;;;26.50;12.93;;;;;;;20.85;33.81;94254.97;5029197;28;20728;-57
2022/04/23 05:19:24;;;;;;;32.90;15.70;;;;;;;20.86;33.55;94261.84;5029721;28;20439;-57
2022/04/23 05:21:51;;;;;;;27.80;14.37;;;;;;;20.37;34.92;94278.91;5028561;28;20483;-59
2022/04/23 05:24:18;;;;;;;18.43;10.50;;;;;;;20.68;34.17;94271.19;5029249;28;20551;-58
2022/04/23 05:26:52;;;;;;;24.27;9.90;;;;;;;20.74;34.04;94269.84;5029029;28;20443;-60
2022/04/23 05:29:19;;;;;;;17.93;9.33;;;;;;;20.71;34.67;94269.75;5029035;28;20765;-53
2022/04/23 05:31:46;;;;;;;14.40;8.40;;;;;;;20.59;33.89;94277.72;5028757;28;20554;-58
2022/04/23 05:34:13;;;;;;;15.27;8.40;;;;;;;20.51;34.09;94282.03;5029269;28;20452;-59
2022/04/23 05:36:40;;;;;;;19.07;8.83;;;;;;;20.56;34.52;94273.06;5028929;28;20448;-61
2022/04/23 05:39:06;;;;;;;14.87;8.30;;;;;;;20.64;34.51;94275.59;5030485;28;20439;-55
2022/04/23 05:41:34;;;;;;;16.23;8.67;;;;;;;20.92;34.10;94275.72;5032996;28;21115;-55
2022/04/23 05:44:00;;;;;;;19.17;8.03;;;;;;;20.79;34.59;94272.28;5033618;28;20443;-53
2022/04/23 05:46:28;;;;;;;20.20;8.80;;;;;;;20.75;34.48;94266.06;5032659;28;20447;-60
2022/04/23 05:48:56;;;;;;;20.33;8.30;;;;;;;20.84;35.05;94274.72;5033264;28;20958;-55
2022/04/23 05:51:23;;;;;;;16.30;7.43;;;;;;;21.14;34.19;94276.06;5032654;28;20554;-57
2022/04/23 05:53:50;;;;;;;23.07;7.97;;;;;;;20.70;34.80;94247.66;5033620;28;20440;-55
2022/04/23 05:56:17;;;;;;;21.33;8.30;;;;;;;21.12;34.18;94270.28;5033043;28;20475;-54
2022/04/23 05:58:44;;;;;;;18.60;7.20;;;;;;;21.07;33.98;94257.22;5033549;28;20436;-54
2022/04/23 06:01:11;;;;;;;12.13;6.87;;;;;;;21.47;33.75;94269.75;5032222;28;20542;-56
2022/04/23 06:03:38;;;;;;;13.70;6.93;;;;;;;21.53;34.66;94271.06;5033274;28;20439;-56
2022/04/23 06:06:05;;;;;;;15.53;7.03;;;;;;;21.80;34.63;94278.31;5032123;28;20444;-57
2022/04/23 06:08:31;;;;;;;15.97;6.93;;;;;;;21.59;34.73;94280.38;5033057;28;20424;-53
2022/04/23 06:11:04;;;;;;;11.53;6.30;;;;;;;21.56;34.83;94270.38;5031056;28;20451;-56
2022/04/23 06:13:31;;;;;;;14.43;7.17;;;;;;;21.84;34.51;94269.28;5032362;28;20451;-59
2022/04/23 06:15:58;;;;;;;12.47;6.07;;;;;;;22.17;34.17;94271.69;5032118;28;20970;-58
2022/04/23 06:18:25;;;;;;;11.67;6.03;;;;;;;22.07;34.15;94285.53;5032939;28;20468;-54
2022/04/23 06:20:52;;;;;;;12.10;6.17;;;;;;;22.48;34.11;94274.38;5032174;28;20467;-56
2022/04/23 06:23:19;;;;;;;13.33;7.23;;;;;;;22.44;34.18;94278.09;5031178;28;20487;-55
2022/04/23 06:25:46;;;;;;;9.80;6.80;;;;;;;22.11;34.74;94286.41;5032268;28;20511;-59
2022/04/23 06:28:12;;;;;;;13.53;6.27;;;;;;;21.96;34.65;94281.81;5032573;28;20494;-60
2022/04/23 06:30:39;;;;;;;9.20;6.00;;;;;;;22.17;34.67;94285.03;5032145;28;20529;-55
2022/04/23 06:33:06;;;;;;;15.03;6.20;;;;;;;22.22;35.01;94273.34;5032306;28;20996;-62
2022/04/23 06:35:34;;;;;;;10.80;5.97;;;;;;;22.18;34.79;94283.91;5031974;28;20539;-56
2022/04/23 06:38:01;;;;;;;9.13;6.00;;;;;;;22.51;34.63;94287.06;5032963;28;20487;-59
2022/04/23 06:40:28;;;;;;;15.40;6.40;;;;;;;22.48;34.41;94281.63;5031626;28;20444;-62
2022/04/23 06:42:55;;;;;;;15.03;7.20;;;;;;;22.41;34.88;94278.78;5032124;28;20850;-60
2022/04/23 06:45:28;;;;;;;12.73;6.97;;;;;;;22.53;34.53;94279.47;5030325;28;20538;-59
2022/04/23 06:48:05;;;;;;;13.03;7.33;;;;;;;21.95;34.89;94264.25;5032347;28;21032;-57
2022/04/23 06:50:33;;;;;;;12.53;6.77;;;;;;;22.16;34.97;94275.47;5029828;28;20450;-54
2022/04/23 06:53:01;;;;;;;14.83;6.93;;;;;;;22.27;34.70;94271.19;5032170;28;20440;-57
2022/04/23 06:55:29;;;;;;;10.57;6.23;;;;;;;22.28;34.83;94278.06;5031742;28;20828;-60
2022/04/23 06:57:56;;;;;;;14.17;6.83;;;;;;;22.51;34.39;94263.03;5031997;28;20443;-58
2022/04/23 07:00:23;;;;;;;12.00;6.90;;;;;;;22.48;34.81;94282.38;5031659;28;20793;-59
2022/04/23 07:02:55;;;;;;;13.20;8.60;;;;;;;22.83;34.27;94288.63;5032249;28;20480;-57
2022/04/23 07:05:22;;;;;;;14.53;7.13;;;;;;;22.54;34.43;94286.34;5031401;28;20440;-56
2022/04/23 07:07:57;;;;;;;13.60;7.67;;;;;;;22.45;34.96;94291.09;5031839;28;20444;-59
2022/04/23 07:10:26;;;;;;;16.10;7.00;;;;;;;22.25;35.85;94288.66;5030955;28;20907;-57
2022/04/23 07:12:53;;;;;;;15.63;7.63;;;;;;;22.60;36.33;94271.66;5031612;28;20833;-57
2022/04/23 07:15:22;;;;;;;16.80;6.30;;;;;;;23.07;34.90;94290.31;5031199;28;20483;-60
2022/04/23 07:17:49;;;;;;;12.77;6.77;;;;;;;23.06;35.46;94297.53;5031561;28;20472;-54
2022/04/23 07:20:17;;;;;;;11.00;5.43;;;;;;;22.75;35.78;94308.28;5030846;28;20479;-54
2022/04/23 07:25:36;;;;;;;9.10;4.00;;;;;;;22.39;35.61;94313.06;5030838;28;20447;-58
2022/04/23 07:28:04;;;;;;;11.97;4.20;;;;;;;22.88;35.32;94317.72;5031185;28;20448;-53
2022/04/23 07:30:33;;;;;;;9.13;3.37;;;;;;;23.13;34.98;94321.78;5030696;28;20444;-57
2022/04/23 07:33:00;;;;;;;8.27;2.93;;;;;;;23.05;35.04;94322.72;5030178;28;20483;-56
2022/04/23 07:38:18;;;;;;;8.07;3.20;;;;;;;23.32;34.69;94325.66;5031145;28;20459;-60
2022/04/23 07:40:47;;;;;;;8.33;3.23;;;;;;;23.66;34.34;94330.19;5030309;28;20436;-53
2022/04/23 07:43:15;;;;;;;7.47;3.30;;;;;;;23.75;34.48;94333.44;5031114;28;20487;-61
2022/04/23 07:45:44;;;;;;;9.93;3.93;;;;;;;23.87;34.09;94330.63;5030158;28;21032;-54
2022/04/23 07:48:13;;;;;;;7.33;4.20;;;;;;;23.95;33.90;94335.00;5031006;28;20456;-56
2022/04/23 07:50:41;;;;;;;8.70;3.37;;;;;;;23.43;33.65;94334.69;5030356;28;20431;-58
2022/04/23 07:53:09;;;;;;;9.47;3.70;;;;;;;22.95;34.36;94338.50;5029292;28;20467;-59
2022/04/23 07:55:38;;;;;;;9.63;3.50;;;;;;;23.20;34.79;94339.06;5030473;28;20455;-53
2022/04/23 07:58:05;;;;;;;8.13;3.33;;;;;;;23.03;35.09;94345.56;5030661;28;20460;-50
2022/04/23 08:00:36;;;;;;;10.23;3.20;;;;;;;22.73;35.28;94342.56;5030014;28;20532;-56
2022/04/23 08:03:03;;;;;;;7.10;2.93;;;;;;;22.62;34.98;94341.53;5030210;28;21014;-55
2022/04/23 08:05:31;;;;;;;7.97;3.20;;;;;;;22.40;35.80;94344.75;5030560;28;20970;-61
2022/04/23 08:07:58;;;;;;;11.40;3.50;;;;;;;22.74;35.98;94344.09;5030966;28;20462;-59
2022/04/23 08:10:25;;;;;;;10.67;3.83;;;;;;;23.05;35.63;94360.13;5029930;28;20428;-59
2022/04/23 08:12:54;;;;;;;5.83;3.30;;;;;;;23.06;36.35;94350.22;5030503;28;21066;-54
2022/04/23 08:15:21;;;;;;;7.23;3.17;;;;;;;22.89;36.47;94362.03;5030530;28;20490;-55
2022/04/23 08:17:48;;;;;;;9.73;3.40;;;;;;;23.10;36.22;94357.19;5029999;28;20546;-60
2022/04/23 08:20:15;;;;;;;9.30;3.60;;;;;;;23.55;36.13;94350.59;5030065;28;20450;-56
2022/04/23 08:22:42;;;;;;;10.03;3.13;;;;;;;23.46;35.87;94350.00;5030150;28;20475;-61
2022/04/23 08:25:09;;;;;;;9.43;3.77;;;;;;;23.71;36.52;94354.00;5029670;28;21318;-53
2022/04/23 08:27:47;;;;;;;11.13;3.43;;;;;;;23.42;36.13;94354.50;5030156;28;20454;-59
2022/04/23 08:33:05;;;;;;;4.83;2.83;;;;;;;22.59;35.96;94358.22;5030249;28;20522;-47
2022/04/23 08:35:33;;;;;;;8.47;2.90;;;;;;;22.66;36.00;94363.72;5029911;28;20466;-57
2022/04/23 08:38:00;;;;;;;8.73;2.90;;;;;;;23.13;34.99;94351.16;5030383;28;20579;-58
2022/04/23 08:40:30;;;;;;;4.93;2.77;;;;;;;23.19;35.49;94353.56;5029946;28;20448;-60
2022/04/23 08:42:57;;;;;;;5.10;2.50;;;;;;;22.88;35.51;94354.38;5029879;28;20490;-56
2022/04/23 08:45:24;;;;;;;5.20;2.13;;;;;;;23.00;34.90;94356.94;5028352;28;20475;-60
2022/04/23 08:47:51;;;;;;;4.83;2.10;;;;;;;22.75;36.24;94351.00;5029598;28;20454;-56
2022/04/23 08:50:23;;;;;;;7.07;2.03;;;;;;;23.44;34.43;94360.28;5029360;28;20475;-60
2022/04/23 08:52:55;;;;;;;4.57;1.97;;;;;;;22.91;35.07;94359.81;5029464;28;20518;-54
2022/04/23 08:55:26;;;;;;;6.53;1.90;;;;;;;23.20;34.51;94365.81;5029229;28;20451;-54
2022/04/23 08:57:54;;;;;;;6.83;2.37;;;;;;;23.10;34.46;94356.44;5030027;28;20865;-59
2022/04/23 09:00:22;;;;;;;3.97;2.03;;;;;;;23.08;34.29;94369.38;5028796;28;20998;-54
2022/04/23 09:02:49;;;;;;;3.77;2.00;;;;;;;22.82;34.38;94366.44;5029472;28;20484;-51
2022/04/23 09:05:16;;;;;;;5.83;2.20;;;;;;;22.47;35.22;94371.63;5029424;28;20446;-56
2022/04/23 09:07:53;;;;;;;3.30;2.03;;;;;;;22.89;34.28;94370.06;5029406;28;20420;-54
2022/04/23 09:10:47;;;;;;;5.70;2.13;;;;;;;23.57;33.64;94359.03;5029305;28;20485;-50
2022/04/23 09:13:29;;;;;;;5.20;2.00;;;;;;;23.48;33.31;94350.44;5029221;28;20497;-57
2022/04/23 09:24:19;;;;;;;4.17;2.20;;;;;;;24.01;32.23;94349.69;5029843;28;20443;-59
2022/04/23 09:27:03;;;;;;;6.10;1.90;;;;;;;23.38;33.48;94359.00;5029000;28;20970;-61
2022/04/23 09:29:30;;;;;;;5.23;2.00;;;;;;;22.88;33.83;94355.13;5029515;28;20969;-56
2022/04/23 09:32:19;;;;;;;4.57;1.90;;;;;;;22.26;34.82;94355.06;5029010;28;20440;-53
2022/04/23 09:34:46;;;;;;;6.57;2.10;;;;;;;23.11;33.92;94358.75;5028875;28;20456;-57
2022/04/23 09:37:27;;;;;;;5.20;2.60;;;;;;;22.63;34.50;94361.75;5028865;28;20454;-62
2022/04/23 09:39:55;;;;;;;4.87;2.00;;;;;;;22.62;34.08;94357.56;5029250;28;20440;-60
2022/04/23 09:42:22;;;;;;;5.00;1.80;;;;;;;22.89;33.98;94362.03;5029169;28;20463;-55
2022/04/23 09:44:48;;;;;;;3.80;2.00;;;;;;;22.63;34.15;94353.75;5028671;28;20510;-60
2022/04/23 09:47:31;;;;;;;7.77;2.10;;;;;;;23.11;34.01;94348.06;5029350;28;20440;-57
2022/04/23 09:49:59;;;;;;;6.70;2.40;;;;;;;23.40;34.55;94343.38;5029005;28;20447;-63
2022/04/23 09:52:28;;;;;;;7.77;2.30;;;;;;;23.01;35.13;94335.22;5028982;28;20431;-55
2022/04/23 09:55:23;;;;;;;6.33;2.97;;;;;;;23.24;35.27;94335.38;5028887;28;20428;-61
2022/04/23 09:57:51;;;;;;;3.50;1.80;;;;;;;23.39;35.00;94333.81;5029412;28;20447;-63
2022/04/23 10:00:19;;;;;;;10.13;2.40;;;;;;;22.46;35.41;94330.03;5028783;28;20451;-58
2022/04/23 10:02:50;;;;;;;5.33;2.10;;;;;;;23.07;34.70;94341.84;5028843;28;20859;-58
2022/04/23 10:05:20;;;;;;;3.07;2.20;;;;;;;22.91;33.97;94333.09;5028672;28;20444;-55
2022/04/23 10:07:49;;;;;;;5.50;2.50;;;;;;;23.01;34.52;94347.78;5028990;28;20450;-56
2022/04/23 10:10:17;;;;;;;4.73;2.23;;;;;;;24.03;34.21;94339.41;5028690;28;20475;-52
2022/04/23 10:12:45;;;;;;;10.40;2.37;;;;;;;23.87;33.10;94330.63;5028842;28;20439;-61
2022/04/23 10:15:14;;;;;;;7.97;3.47;;;;;;;24.86;32.26;94322.53;5029093;28;20451;-54
2022/04/23 10:17:42;;;;;;;10.17;2.23;;;;;;;25.81;32.02;94315.91;5029030;28;20471;-53
2022/04/23 10:20:12;;;;;;;7.20;2.63;;;;;;;25.60;31.26;94302.22;5028296;28;20456;-57
2022/04/23 10:23:15;;;;;;;9.37;2.57;;;;;;;25.86;30.08;94304.84;5028609;28;20217;-62
2022/04/23 10:25:49;;;;;;;6.80;2.43;;;;;;;26.28;29.73;94307.25;5029511;28;20207;-62
2022/04/23 10:28:17;;;;;;;11.03;2.40;;;;;;;26.13;30.42;94303.66;5032316;28;20270;-60
2022/04/23 10:30:48;;;;;;;8.33;2.50;;;;;;;25.98;29.27;94312.66;5032265;28;20204;-57
2022/04/23 10:33:28;;;;;;;9.43;2.40;;;;;;;26.42;29.37;94310.84;5032854;28;20220;-57
2022/04/23 10:36:09;;;;;;;5.17;2.10;;;;;;;26.73;29.66;94304.28;5032174;28;20208;-58
2022/04/23 10:38:38;;;;;;;8.00;2.17;;;;;;;27.42;28.48;94291.75;5032181;28;20690;-63
2022/04/23 10:41:07;;;;;;;8.40;2.37;;;;;;;27.70;28.12;94308.06;5031972;28;20263;-57
2022/04/23 10:43:34;;;;;;;6.17;2.77;;;;;;;27.87;27.79;94301.97;5032823;28;20268;-60
2022/04/23 10:46:04;;;;;;;7.97;2.40;;;;;;;27.37;28.73;94309.00;5031948;28;20193;-54
2022/04/23 10:48:33;;;;;;;9.77;3.07;;;;;;;27.86;28.39;94305.81;5031954;28;20193;-54
2022/04/23 10:51:01;;;;;;;9.20;2.63;;;;;;;28.08;27.82;94287.84;5031510;28;20193;-59
2022/04/23 10:53:49;;;;;;;9.53;2.60;;;;;;;27.92;26.69;94298.91;5031873;28;20199;-53
2022/04/23 10:56:19;;;;;;;9.13;2.73;;;;;;;27.97;26.36;94299.34;5031458;28;20209;-54
2022/04/23 10:58:46;;;;;;;9.30;2.97;;;;;;;27.90;nan;94298.53;5032279;28;20231;-58
2022/04/23 11:01:29;;;;;;;8.53;2.90;;;;;;;27.56;27.32;94306.06;5031269;28;20210;-51
2022/04/23 11:04:07;;;;;;;8.90;2.77;;;;;;;27.18;27.10;94316.53;5031709;28;20308;-54
2022/04/23 11:12:54;;;;;;;10.67;2.90;;;;;;;27.64;28.09;94299.56;5031552;28;20192;-56
2022/04/23 11:15:21;;;;;;;8.40;2.60;;;;;;;28.21;27.47;94305.97;5031305;28;20211;-52
2022/04/23 11:17:56;;;;;;;7.97;2.73;;;;;;;28.35;27.05;94300.63;5031471;28;20726;-57
2022/04/23 11:20:28;;;;;;;10.77;3.00;;;;;;;28.44;26.80;94303.75;5031118;28;20211;-56
2022/04/23 11:22:55;;;;;;;10.90;2.80;;;;;;;28.43;26.03;94291.41;5031395;28;20283;-62
2022/04/23 11:25:23;;;;;;;10.17;2.50;;;;;;;28.73;26.04;94294.56;5031307;28;20212;-51
2022/04/23 11:27:51;;;;;;;6.93;2.50;;;;;;;29.27;25.49;94289.97;5030485;28;20193;-54
2022/04/23 11:30:29;;;;;;;7.40;2.50;;;;;;;29.63;25.40;94281.41;5031428;28;20208;-59
2022/04/23 11:33:12;;;;;;;10.73;2.90;;;;;;;29.39;25.29;94284.94;5031389;28;20207;-60
2022/04/23 11:35:40;;;;;;;8.83;2.47;;;;;;;29.56;25.09;94294.91;5031474;28;20205;-58
2022/04/23 11:38:17;;;;;;;7.03;2.30;;;;;;;28.40;25.12;94292.16;5030605;28;20197;-57
2022/04/23 11:40:44;;;;;;;7.10;2.37;;;;;;;28.23;25.80;94302.91;5030857;28;20200;-58
2022/04/23 11:43:13;;;;;;;10.67;2.27;;;;;;;28.12;26.31;94302.13;5030766;28;20207;-57
2022/04/23 11:45:47;;;;;;;7.93;2.53;;;;;;;28.23;25.87;94303.66;5030739;28;20635;-55
2022/04/23 11:48:15;;;;;;;8.33;2.30;;;;;;;27.33;26.19;94304.75;5031350;28;20299;-52
2022/04/23 11:50:42;;;;;;;8.23;2.30;;;;;;;26.73;27.55;94307.72;5030617;28;20189;-60
2022/04/23 11:53:10;;;;;;;8.13;2.23;;;;;;;26.43;27.90;94306.25;5030728;28;20212;-53
2022/04/23 11:55:37;;;;;;;4.67;2.10;;;;;;;26.65;28.80;94314.16;5030121;28;20209;-61
2022/04/23 11:58:05;;;;;;;10.40;2.43;;;;;;;26.88;27.84;94305.94;5031242;28;20303;-57
2022/04/23 12:00:33;;;;;;;9.80;2.33;;;;;;;26.59;28.76;94320.22;5030515;28;20204;-61